sensor_id;sensor_type;location;lat;lon;timestamp;pressure;altitude;pressure_sealevel;temperature;humidity
24422;BME280;12600;53.326;-6.298;2024-03-23T00:54:56;101181.50;;;6.08;93.08
24422;BME280;12600;53.326;-6.298;2024-03-23T00:57:45;101177.72;;;6.14;93.36
24422;BME280;12600;53.326;-6.298;2024-03-23T01:00:32;101179.91;;;6.12;92.79
24422;BME280;12600;53.326;-6.298;2024-03-23T01:03:20;101177.19;;;6.12;93.30
24422;BME280;12600;53.326;-6.298;2024-03-23T01:06:08;101179.34;;;6.05;93.17
24422;BME280;12600;53.326;-6.298;2024-03-23T01:08:58;101180.16;;;6.15;92.81
24422;BME280;12600;53.326;-6.298;2024-03-23T01:11:45;101167.13;;;6.07;93.17
24422;BME280;12600;53.326;-6.298;2024-03-23T01:14:34;101170.94;;;6.16;92.59
24422;BME280;12600;53.326;-6.298;2024-03-23T01:17:22;101177.50;;;6.26;92.94
24422;BME280;12600;53.326;-6.298;2024-03-23T01:20:12;101175.56;;;6.11;92.97
24422;BME280;12600;53.326;-6.298;2024-03-23T01:22:59;101166.09;;;6.19;93.48
24422;BME280;12600;53.326;-6.298;2024-03-23T01:25:54;101178.00;;;6.17;93.19
24422;BME280;12600;53.326;-6.298;2024-03-23T01:28:41;101155.75;;;6.10;93.04
24422;BME280;12600;53.326;-6.298;2024-03-23T01:31:29;101161.19;;;6.10;94.02
24422;BME280;12600;53.326;-6.298;2024-03-23T01:34:17;101174.25;;;6.29;92.42
24422;BME280;12600;53.326;-6.298;2024-03-23T01:37:06;101162.03;;;6.21;92.45
24422;BME280;12600;53.326;-6.298;2024-03-23T01:39:53;101168.53;;;6.25;92.80
24422;BME280;12600;53.326;-6.298;2024-03-23T01:42:57;101162.28;;;6.25;92.96
24422;BME280;12600;53.326;-6.298;2024-03-23T01:45:44;101154.72;;;6.27;92.98
24422;BME280;12600;53.326;-6.298;2024-03-23T01:48:32;101150.88;;;6.17;94.04
24422;BME280;12600;53.326;-6.298;2024-03-23T01:51:20;101146.00;;;6.25;93.64
24422;BME280;12600;53.326;-6.298;2024-03-23T01:54:09;101144.38;;;6.24;92.78
24422;BME280;12600;53.326;-6.298;2024-03-23T01:56:57;101130.56;;;6.30;92.91
24422;BME280;12600;53.326;-6.298;2024-03-23T01:59:48;101138.97;;;6.29;93.05
24422;BME280;12600;53.326;-6.298;2024-03-23T02:02:45;101140.34;;;6.36;92.57
24422;BME280;12600;53.326;-6.298;2024-03-23T02:05:34;101141.97;;;6.27;92.45
24422;BME280;12600;53.326;-6.298;2024-03-23T02:08:23;101136.81;;;6.31;93.08
24422;BME280;12600;53.326;-6.298;2024-03-23T02:11:11;101136.81;;;6.31;93.21
24422;BME280;12600;53.326;-6.298;2024-03-23T02:13:59;101137.88;;;6.25;92.87
24422;BME280;12600;53.326;-6.298;2024-03-23T02:16:48;101165.59;;;6.37;93.33
24422;BME280;12600;53.326;-6.298;2024-03-23T02:19:36;101152.84;;;6.42;92.73
24422;BME280;12600;53.326;-6.298;2024-03-23T02:22:24;101156.34;;;6.38;93.11
24422;BME280;12600;53.326;-6.298;2024-03-23T02:25:13;101150.94;;;6.48;92.41
24422;BME280;12600;53.326;-6.298;2024-03-23T02:28:02;101141.19;;;6.52;92.25
24422;BME280;12600;53.326;-6.298;2024-03-23T02:30:50;101144.44;;;6.44;92.95
24422;BME280;12600;53.326;-6.298;2024-03-23T02:33:38;101133.03;;;6.37;92.22
24422;BME280;12600;53.326;-6.298;2024-03-23T02:36:26;101144.41;;;6.49;91.92
24422;BME280;12600;53.326;-6.298;2024-03-23T02:39:14;101137.38;;;6.43;92.42
24422;BME280;12600;53.326;-6.298;2024-03-23T02:42:03;101116.22;;;6.50;92.09
24422;BME280;12600;53.326;-6.298;2024-03-23T02:44:52;101127.06;;;6.55;92.27
24422;BME280;12600;53.326;-6.298;2024-03-23T02:47:40;101116.75;;;6.47;92.78
24422;BME280;12600;53.326;-6.298;2024-03-23T02:50:28;101111.31;;;6.52;92.46
24422;BME280;12600;53.326;-6.298;2024-03-23T02:53:15;101106.44;;;6.54;92.10
24422;BME280;12600;53.326;-6.298;2024-03-23T02:56:04;101104.53;;;6.60;91.37
24422;BME280;12600;53.326;-6.298;2024-03-23T02:58:53;101093.66;;;6.50;91.64
24422;BME280;12600;53.326;-6.298;2024-03-23T03:01:42;101107.25;;;6.65;91.84
24422;BME280;12600;53.326;-6.298;2024-03-23T03:04:29;101109.13;;;6.64;91.72
24422;BME280;12600;53.326;-6.298;2024-03-23T03:07:17;101106.97;;;6.71;92.24
24422;BME280;12600;53.326;-6.298;2024-03-23T03:10:06;101105.34;;;6.70;91.51
24422;BME280;12600;53.326;-6.298;2024-03-23T03:12:57;101094.75;;;6.84;91.73
24422;BME280;12600;53.326;-6.298;2024-03-23T03:15:47;101090.38;;;6.88;91.73
24422;BME280;12600;53.326;-6.298;2024-03-23T03:18:34;101086.31;;;6.81;91.05
24422;BME280;12600;53.326;-6.298;2024-03-23T03:21:23;101076.81;;;6.73;91.07
24422;BME280;12600;53.326;-6.298;2024-03-23T03:24:10;101088.53;;;6.68;91.92
24422;BME280;12600;53.326;-6.298;2024-03-23T03:26:59;101079.28;;;6.54;92.43
24422;BME280;12600;53.326;-6.298;2024-03-23T03:29:46;101068.97;;;6.56;92.81
24422;BME280;12600;53.326;-6.298;2024-03-23T03:32:36;101069.78;;;6.67;92.53
24422;BME280;12600;53.326;-6.298;2024-03-23T03:35:23;101074.09;;;6.73;92.61
24422;BME280;12600;53.326;-6.298;2024-03-23T03:38:12;101084.72;;;6.75;92.01
24422;BME280;12600;53.326;-6.298;2024-03-23T03:40:59;101073.31;;;6.78;91.67
24422;BME280;12600;53.326;-6.298;2024-03-23T03:43:47;101070.56;;;6.72;91.95
24422;BME280;12600;53.326;-6.298;2024-03-23T03:46:35;101061.91;;;6.76;91.85
24422;BME280;12600;53.326;-6.298;2024-03-23T03:49:24;101053.75;;;6.70;92.47
24422;BME280;12600;53.326;-6.298;2024-03-23T03:52:12;101053.72;;;6.81;91.81
24422;BME280;12600;53.326;-6.298;2024-03-23T03:55:02;101024.94;;;6.80;91.83
24422;BME280;12600;53.326;-6.298;2024-03-23T03:57:50;101040.72;;;6.78;91.23
24422;BME280;12600;53.326;-6.298;2024-03-23T04:00:38;101029.06;;;6.57;91.59
24422;BME280;12600;53.326;-6.298;2024-03-23T04:03:25;101021.47;;;6.59;91.72
24422;BME280;12600;53.326;-6.298;2024-03-23T04:06:20;101005.19;;;6.59;92.53
24422;BME280;12600;53.326;-6.298;2024-03-23T04:09:07;101011.97;;;6.66;91.32
24422;BME280;12600;53.326;-6.298;2024-03-23T04:11:57;101009.53;;;6.60;91.74
24422;BME280;12600;53.326;-6.298;2024-03-23T04:14:44;101025.00;;;6.59;91.39
24422;BME280;12600;53.326;-6.298;2024-03-23T04:17:32;101005.44;;;6.62;91.48
24422;BME280;12600;53.326;-6.298;2024-03-23T04:20:21;101008.13;;;6.78;90.80
24422;BME280;12600;53.326;-6.298;2024-03-23T04:23:10;100997.25;;;6.72;90.74
24422;BME280;12600;53.326;-6.298;2024-03-23T04:26:03;101003.25;;;6.75;90.56
24422;BME280;12600;53.326;-6.298;2024-03-23T04:28:53;101005.16;;;6.74;90.41
24422;BME280;12600;53.326;-6.298;2024-03-23T04:31:41;100987.53;;;6.51;91.30
24422;BME280;12600;53.326;-6.298;2024-03-23T04:34:28;100996.47;;;6.62;91.31
24422;BME280;12600;53.326;-6.298;2024-03-23T04:37:17;100982.34;;;6.65;90.86
24422;BME280;12600;53.326;-6.298;2024-03-23T04:40:08;100980.72;;;6.69;90.76
24422;BME280;12600;53.326;-6.298;2024-03-23T04:42:58;100999.16;;;6.72;90.22
24422;BME280;12600;53.326;-6.298;2024-03-23T04:45:47;100986.97;;;6.75;89.88
24422;BME280;12600;53.326;-6.298;2024-03-23T04:48:36;100970.94;;;6.68;90.84
24422;BME280;12600;53.326;-6.298;2024-03-23T04:51:24;100965.81;;;6.66;90.39
24422;BME280;12600;53.326;-6.298;2024-03-23T04:54:13;100967.19;;;6.59;90.19
24422;BME280;12600;53.326;-6.298;2024-03-23T04:57:02;100947.09;;;6.60;90.77
24422;BME280;12600;53.326;-6.298;2024-03-23T04:59:52;100964.16;;;6.65;91.29
24422;BME280;12600;53.326;-6.298;2024-03-23T05:02:39;100943.00;;;6.67;90.86
24422;BME280;12600;53.326;-6.298;2024-03-23T05:05:27;100942.75;;;6.59;91.73
24422;BME280;12600;53.326;-6.298;2024-03-23T05:08:15;100936.22;;;6.55;91.76
24422;BME280;12600;53.326;-6.298;2024-03-23T05:11:03;100931.06;;;6.58;91.98
24422;BME280;12600;53.326;-6.298;2024-03-23T05:13:54;100939.50;;;6.47;92.86
24422;BME280;12600;53.326;-6.298;2024-03-23T05:16:42;100931.88;;;6.54;92.76
24422;BME280;12600;53.326;-6.298;2024-03-23T05:19:29;100918.06;;;6.45;92.92
24422;BME280;12600;53.326;-6.298;2024-03-23T05:22:18;100912.59;;;6.60;91.90
24422;BME280;12600;53.326;-6.298;2024-03-23T05:25:05;100918.03;;;6.55;92.04
24422;BME280;12600;53.326;-6.298;2024-03-23T05:27:54;100911.53;;;6.51;91.05
24422;BME280;12600;53.326;-6.298;2024-03-23T05:30:43;100919.94;;;6.55;91.86
24422;BME280;12600;53.326;-6.298;2024-03-23T05:33:31;100930.75;;;6.75;91.79
24422;BME280;12600;53.326;-6.298;2024-03-23T05:36:18;100923.63;;;6.89;91.42
24422;BME280;12600;53.326;-6.298;2024-03-23T05:39:07;100940.22;;;6.83;91.61
24422;BME280;12600;53.326;-6.298;2024-03-23T05:41:54;100935.63;;;6.78;91.50
24422;BME280;12600;53.326;-6.298;2024-03-23T05:44:44;100934.28;;;6.76;91.22
24422;BME280;12600;53.326;-6.298;2024-03-23T05:47:33;100923.94;;;6.78;91.78
24422;BME280;12600;53.326;-6.298;2024-03-23T05:50:21;100907.41;;;6.74;91.29
24422;BME280;12600;53.326;-6.298;2024-03-23T05:53:09;100911.50;;;6.66;92.54
24422;BME280;12600;53.326;-6.298;2024-03-23T05:56:01;100916.09;;;6.71;92.12
24422;BME280;12600;53.326;-6.298;2024-03-23T05:58:50;100924.19;;;6.86;92.50
24422;BME280;12600;53.326;-6.298;2024-03-23T06:01:39;100925.56;;;6.73;92.31
24422;BME280;12600;53.326;-6.298;2024-03-23T06:04:27;100915.78;;;6.83;91.90
24422;BME280;12600;53.326;-6.298;2024-03-23T06:07:16;100921.47;;;6.91;91.92
24422;BME280;12600;53.326;-6.298;2024-03-23T06:10:04;100910.88;;;6.90;91.78
24422;BME280;12600;53.326;-6.298;2024-03-23T06:12:53;100909.78;;;6.91;91.54
24422;BME280;12600;53.326;-6.298;2024-03-23T06:15:42;100912.50;;;6.86;91.04
24422;BME280;12600;53.326;-6.298;2024-03-23T06:18:29;100917.06;;;6.95;91.36
24422;BME280;12600;53.326;-6.298;2024-03-23T06:21:19;100908.44;;;6.83;91.43
24422;BME280;12600;53.326;-6.298;2024-03-23T06:24:07;100916.31;;;6.90;90.74
24422;BME280;12600;53.326;-6.298;2024-03-23T06:26:55;100906.50;;;6.94;89.90
24422;BME280;12600;53.326;-6.298;2024-03-23T06:29:42;100900.47;;;7.02;89.64
24422;BME280;12600;53.326;-6.298;2024-03-23T06:32:31;100902.91;;;7.04;89.96
24422;BME280;12600;53.326;-6.298;2024-03-23T06:35:18;100903.25;;;6.87;89.71
24422;BME280;12600;53.326;-6.298;2024-03-23T06:38:08;100893.22;;;6.87;89.79
24422;BME280;12600;53.326;-6.298;2024-03-23T06:40:55;100909.22;;;6.94;89.74
24422;BME280;12600;53.326;-6.298;2024-03-23T06:43:43;100901.59;;;6.96;90.83
24422;BME280;12600;53.326;-6.298;2024-03-23T06:46:31;100902.72;;;6.90;92.00
24422;BME280;12600;53.326;-6.298;2024-03-23T06:49:19;100905.47;;;6.80;92.17
24422;BME280;12600;53.326;-6.298;2024-03-23T06:52:06;100895.94;;;6.87;91.74
24422;BME280;12600;53.326;-6.298;2024-03-23T06:54:57;100901.97;;;6.74;92.99
24422;BME280;12600;53.326;-6.298;2024-03-23T06:57:44;100905.19;;;6.81;93.38
24422;BME280;12600;53.326;-6.298;2024-03-23T07:00:33;100895.69;;;6.84;93.04
24422;BME280;12600;53.326;-6.298;2024-03-23T07:03:20;100891.34;;;6.78;93.44
24422;BME280;12600;53.326;-6.298;2024-03-23T07:06:10;100894.59;;;6.85;93.74
24422;BME280;12600;53.326;-6.298;2024-03-23T07:08:58;100887.31;;;6.75;93.92
24422;BME280;12600;53.326;-6.298;2024-03-23T07:11:48;100884.53;;;6.85;94.58
24422;BME280;12600;53.326;-6.298;2024-03-23T07:14:35;100865.25;;;6.82;95.15
24422;BME280;12600;53.326;-6.298;2024-03-23T07:17:24;100881.53;;;6.92;95.23
24422;BME280;12600;53.326;-6.298;2024-03-23T07:20:11;100881.53;;;6.82;95.24
24422;BME280;12600;53.326;-6.298;2024-03-23T07:23:00;100869.09;;;6.76;94.73
24422;BME280;12600;53.326;-6.298;2024-03-23T07:25:57;100864.13;;;6.98;94.82
24422;BME280;12600;53.326;-6.298;2024-03-23T07:28:46;100871.75;;;6.91;94.74
24422;BME280;12600;53.326;-6.298;2024-03-23T07:31:34;100866.00;;;6.97;95.11
24422;BME280;12600;53.326;-6.298;2024-03-23T07:34:22;100865.97;;;7.08;95.16
24422;BME280;12600;53.326;-6.298;2024-03-23T07:37:09;100876.84;;;6.97;95.20
24422;BME280;12600;53.326;-6.298;2024-03-23T07:39:58;100876.34;;;6.95;95.62
24422;BME280;12600;53.326;-6.298;2024-03-23T07:42:46;100869.28;;;6.94;96.42
24422;BME280;12600;53.326;-6.298;2024-03-23T07:45:35;100877.72;;;6.93;95.89
24422;BME280;12600;53.326;-6.298;2024-03-23T07:48:24;100880.38;;;7.03;95.01
24422;BME280;12600;53.326;-6.298;2024-03-23T07:51:18;100885.78;;;7.08;95.05
24422;BME280;12600;53.326;-6.298;2024-03-23T07:54:06;100896.06;;;7.16;94.89
24422;BME280;12600;53.326;-6.298;2024-03-23T07:56:54;100894.38;;;7.25;93.67
24422;BME280;12600;53.326;-6.298;2024-03-23T07:59:43;100893.56;;;7.25;93.84
24422;BME280;12600;53.326;-6.298;2024-03-23T08:02:32;100899.03;;;7.20;93.65
24422;BME280;12600;53.326;-6.298;2024-03-23T08:05:20;100904.50;;;7.15;94.00
24422;BME280;12600;53.326;-6.298;2024-03-23T08:08:08;100904.25;;;7.11;95.97
24422;BME280;12600;53.326;-6.298;2024-03-23T08:10:55;100892.31;;;7.07;95.97
24422;BME280;12600;53.326;-6.298;2024-03-23T08:13:45;100897.69;;;7.17;96.06
24422;BME280;12600;53.326;-6.298;2024-03-23T08:16:32;100891.19;;;7.13;96.61
24422;BME280;12600;53.326;-6.298;2024-03-23T08:19:22;100902.28;;;7.22;95.58
24422;BME280;12600;53.326;-6.298;2024-03-23T08:22:10;100923.69;;;7.34;94.93
24422;BME280;12600;53.326;-6.298;2024-03-23T08:24:58;100911.69;;;7.40;93.73
24422;BME280;12600;53.326;-6.298;2024-03-23T08:27:45;100920.41;;;7.37;93.42
24422;BME280;12600;53.326;-6.298;2024-03-23T08:30:35;100907.06;;;7.40;93.29
24422;BME280;12600;53.326;-6.298;2024-03-23T08:33:23;100924.69;;;7.48;93.36
24422;BME280;12600;53.326;-6.298;2024-03-23T08:36:13;100842.69;;;6.91;92.81
24422;BME280;12600;53.326;-6.298;2024-03-23T08:39:01;100906.84;;;7.32;94.43
24422;BME280;12600;53.326;-6.298;2024-03-23T08:41:48;100914.06;;;7.51;94.10
24422;BME280;12600;53.326;-6.298;2024-03-23T08:44:38;100912.13;;;7.57;94.23
24422;BME280;12600;53.326;-6.298;2024-03-23T08:47:27;100921.66;;;7.54;94.75
24422;BME280;12600;53.326;-6.298;2024-03-23T08:50:14;100903.94;;;7.62;94.76
24422;BME280;12600;53.326;-6.298;2024-03-23T08:53:04;100908.81;;;7.60;95.57
24422;BME280;12600;53.326;-6.298;2024-03-23T08:55:53;100909.47;;;7.47;96.17
24422;BME280;12600;53.326;-6.298;2024-03-23T08:58:42;100894.19;;;7.56;95.25
24422;BME280;12600;53.326;-6.298;2024-03-23T09:01:29;100899.44;;;7.42;95.50
24422;BME280;12600;53.326;-6.298;2024-03-23T09:04:17;100884.47;;;7.45;95.08
24422;BME280;12600;53.326;-6.298;2024-03-23T09:07:05;100897.19;;;7.54;94.55
24422;BME280;12600;53.326;-6.298;2024-03-23T09:09:55;100888.47;;;7.52;94.87
24422;BME280;12600;53.326;-6.298;2024-03-23T09:12:42;100894.22;;;7.51;95.06
24422;BME280;12600;53.326;-6.298;2024-03-23T09:15:30;100891.41;;;7.61;94.94
24422;BME280;12600;53.326;-6.298;2024-03-23T09:18:18;100889.28;;;7.53;94.25
24422;BME280;12600;53.326;-6.298;2024-03-23T09:21:12;100874.56;;;7.59;93.93
24422;BME280;12600;53.326;-6.298;2024-03-23T09:24:00;100876.88;;;7.76;93.43
24422;BME280;12600;53.326;-6.298;2024-03-23T09:26:51;100893.97;;;7.87;91.54
24422;BME280;12600;53.326;-6.298;2024-03-23T09:29:39;100876.41;;;8.03;90.67
24422;BME280;12600;53.326;-6.298;2024-03-23T09:32:27;100879.84;;;8.43;90.24
24422;BME280;12600;53.326;-6.298;2024-03-23T09:35:15;100873.03;;;8.88;88.85
24422;BME280;12600;53.326;-6.298;2024-03-23T09:38:03;100880.56;;;9.52;86.68
24422;BME280;12600;53.326;-6.298;2024-03-23T09:40:53;100872.47;;;9.47;84.19
24422;BME280;12600;53.326;-6.298;2024-03-23T09:43:43;100894.66;;;9.41;81.42
24422;BME280;12600;53.326;-6.298;2024-03-23T09:46:30;100883.41;;;9.05;81.15
24422;BME280;12600;53.326;-6.298;2024-03-23T09:49:21;100879.81;;;8.90;82.00
24422;BME280;12600;53.326;-6.298;2024-03-23T09:52:08;100887.09;;;8.95;82.58
24422;BME280;12600;53.326;-6.298;2024-03-23T09:54:57;100894.91;;;8.59;84.12
24422;BME280;12600;53.326;-6.298;2024-03-23T09:57:44;100886.44;;;8.36;85.19
24422;BME280;12600;53.326;-6.298;2024-03-23T10:00:35;100873.38;;;8.04;88.83
24422;BME280;12600;53.326;-6.298;2024-03-23T10:03:22;100883.84;;;8.21;88.36
24422;BME280;12600;53.326;-6.298;2024-03-23T10:06:10;100877.19;;;8.80;88.34
24422;BME280;12600;53.326;-6.298;2024-03-23T10:08:58;100888.66;;;9.20;86.93
24422;BME280;12600;53.326;-6.298;2024-03-23T10:11:46;100893.88;;;9.73;84.03
24422;BME280;12600;53.326;-6.298;2024-03-23T10:14:37;100894.50;;;10.16;81.82
24422;BME280;12600;53.326;-6.298;2024-03-23T10:17:26;100884.53;;;10.25;80.50
24422;BME280;12600;53.326;-6.298;2024-03-23T10:20:19;100879.47;;;10.19;80.11
24422;BME280;12600;53.326;-6.298;2024-03-23T10:23:16;100888.34;;;10.43;79.19
24422;BME280;12600;53.326;-6.298;2024-03-23T10:26:17;100866.28;;;10.67;77.10
24422;BME280;12600;53.326;-6.298;2024-03-23T10:29:07;100852.81;;;11.20;75.70
24422;BME280;12600;53.326;-6.298;2024-03-23T10:32:08;100857.22;;;11.66;74.04
24422;BME280;12600;53.326;-6.298;2024-03-23T10:35:14;100855.97;;;11.72;70.30
24422;BME280;12600;53.326;-6.298;2024-03-23T10:38:05;100873.41;;;11.99;69.05
24422;BME280;12600;53.326;-6.298;2024-03-23T10:40:54;100867.16;;;12.07;66.89
24422;BME280;12600;53.326;-6.298;2024-03-23T10:43:46;100859.94;;;12.11;65.38
24422;BME280;12600;53.326;-6.298;2024-03-23T10:46:33;100869.22;;;12.32;63.18
24422;BME280;12600;53.326;-6.298;2024-03-23T10:49:24;100873.28;;;12.04;59.58
24422;BME280;12600;53.326;-6.298;2024-03-23T10:52:14;100868.78;;;12.08;59.21
24422;BME280;12600;53.326;-6.298;2024-03-23T10:55:05;100855.47;;;12.24;59.88
24422;BME280;12600;53.326;-6.298;2024-03-23T10:57:54;100878.13;;;12.07;57.01
24422;BME280;12600;53.326;-6.298;2024-03-23T11:00:45;100866.28;;;11.53;57.41
24422;BME280;12600;53.326;-6.298;2024-03-23T11:03:33;100863.09;;;11.37;58.57
24422;BME280;12600;53.326;-6.298;2024-03-23T11:06:35;100788.84;;;11.08;58.99
24422;BME280;12600;53.326;-6.298;2024-03-23T11:09:43;100873.69;;;11.75;58.78
24422;BME280;12600;53.326;-6.298;2024-03-23T11:12:32;100863.94;;;11.83;56.11
24422;BME280;12600;53.326;-6.298;2024-03-23T11:15:20;100867.66;;;12.09;56.13
24422;BME280;12600;53.326;-6.298;2024-03-23T11:18:08;100865.50;;;12.28;54.75
24422;BME280;12600;53.326;-6.298;2024-03-23T11:20:56;100884.94;;;12.58;54.92
24422;BME280;12600;53.326;-6.298;2024-03-23T11:23:44;100874.84;;;12.27;53.61
24422;BME280;12600;53.326;-6.298;2024-03-23T11:26:33;100862.53;;;12.16;55.52
24422;BME280;12600;53.326;-6.298;2024-03-23T11:29:26;100873.44;;;12.08;56.23
24422;BME280;12600;53.326;-6.298;2024-03-23T11:32:13;100882.72;;;12.20;55.66
24422;BME280;12600;53.326;-6.298;2024-03-23T11:35:02;100870.81;;;12.33;53.59
24422;BME280;12600;53.326;-6.298;2024-03-23T11:38:03;100885.94;;;12.62;53.44
24422;BME280;12600;53.326;-6.298;2024-03-23T11:40:51;100891.16;;;12.81;54.38
24422;BME280;12600;53.326;-6.298;2024-03-23T11:43:41;100876.84;;;12.44;52.32
24422;BME280;12600;53.326;-6.298;2024-03-23T11:46:28;100874.97;;;12.22;53.36
24422;BME280;12600;53.326;-6.298;2024-03-23T11:49:24;100870.91;;;12.11;54.22
24422;BME280;12600;53.326;-6.298;2024-03-23T11:52:12;100876.22;;;12.47;54.98
24422;BME280;12600;53.326;-6.298;2024-03-23T11:55:05;100867.03;;;12.43;55.89
24422;BME280;12600;53.326;-6.298;2024-03-23T11:57:54;100893.16;;;12.18;55.50
24422;BME280;12600;53.326;-6.298;2024-03-23T12:00:50;100844.34;;;11.89;56.23
24422;BME280;12600;53.326;-6.298;2024-03-23T12:03:39;100859.00;;;11.93;56.08
24422;BME280;12600;53.326;-6.298;2024-03-23T12:06:31;100881.09;;;11.74;55.80
24422;BME280;12600;53.326;-6.298;2024-03-23T12:09:19;100875.25;;;11.67;53.42
24422;BME280;12600;53.326;-6.298;2024-03-23T12:12:10;100856.59;;;11.47;53.07
24422;BME280;12600;53.326;-6.298;2024-03-23T12:15:03;100853.13;;;11.55;53.02
24422;BME280;12600;53.326;-6.298;2024-03-23T12:18:07;100821.44;;;11.18;53.21
24422;BME280;12600;53.326;-6.298;2024-03-23T12:20:56;100834.06;;;11.50;54.00
24422;BME280;12600;53.326;-6.298;2024-03-23T12:23:44;100856.78;;;11.51;52.88
24422;BME280;12600;53.326;-6.298;2024-03-23T12:26:33;100842.41;;;11.45;52.94
24422;BME280;12600;53.326;-6.298;2024-03-23T12:29:22;100823.97;;;11.37;52.46
24422;BME280;12600;53.326;-6.298;2024-03-23T12:32:09;100836.53;;;11.38;52.23
24422;BME280;12600;53.326;-6.298;2024-03-23T12:34:59;100828.84;;;11.62;51.49
24422;BME280;12600;53.326;-6.298;2024-03-23T12:37:47;100834.06;;;11.72;51.76
24422;BME280;12600;53.326;-6.298;2024-03-23T12:40:36;100831.41;;;11.81;52.24
24422;BME280;12600;53.326;-6.298;2024-03-23T12:43:24;100844.41;;;11.98;52.55
24422;BME280;12600;53.326;-6.298;2024-03-23T12:46:12;100842.16;;;12.00;50.50
24422;BME280;12600;53.326;-6.298;2024-03-23T12:48:59;100839.03;;;11.93;47.41
24422;BME280;12600;53.326;-6.298;2024-03-23T12:51:55;100827.97;;;11.98;47.98
24422;BME280;12600;53.326;-6.298;2024-03-23T12:54:43;100832.06;;;11.87;48.83
24422;BME280;12600;53.326;-6.298;2024-03-23T12:57:31;100826.69;;;11.95;48.61
24422;BME280;12600;53.326;-6.298;2024-03-23T13:00:19;100825.19;;;12.20;48.92
24422;BME280;12600;53.326;-6.298;2024-03-23T13:03:07;100837.78;;;12.30;49.25
24422;BME280;12600;53.326;-6.298;2024-03-23T13:06:00;100831.59;;;12.55;49.07
24422;BME280;12600;53.326;-6.298;2024-03-23T13:08:52;100831.19;;;12.88;48.72
24422;BME280;12600;53.326;-6.298;2024-03-23T13:11:41;100836.19;;;12.86;47.93
24422;BME280;12600;53.326;-6.298;2024-03-23T13:14:30;100806.78;;;12.60;48.34
24422;BME280;12600;53.326;-6.298;2024-03-23T13:17:17;100845.25;;;12.47;48.13
24422;BME280;12600;53.326;-6.298;2024-03-23T13:20:07;100858.47;;;12.45;48.96
24422;BME280;12600;53.326;-6.298;2024-03-23T13:23:00;100862.56;;;11.71;54.36
24422;BME280;12600;53.326;-6.298;2024-03-23T13:25:54;100873.56;;;10.85;65.87
24422;BME280;12600;53.326;-6.298;2024-03-23T13:28:42;100863.94;;;10.47;64.07
24422;BME280;12600;53.326;-6.298;2024-03-23T13:31:31;100862.94;;;10.43;64.34
24422;BME280;12600;53.326;-6.298;2024-03-23T13:34:19;100855.72;;;10.74;62.90
24422;BME280;12600;53.326;-6.298;2024-03-23T13:37:07;100841.16;;;10.79;59.77
24422;BME280;12600;53.326;-6.298;2024-03-23T13:39:56;100828.75;;;11.09;58.41
24422;BME280;12600;53.326;-6.298;2024-03-23T13:42:45;100834.56;;;11.52;56.55
24422;BME280;12600;53.326;-6.298;2024-03-23T13:45:34;100840.53;;;11.54;52.38
24422;BME280;12600;53.326;-6.298;2024-03-23T13:48:25;100839.38;;;11.91;51.16
24422;BME280;12600;53.326;-6.298;2024-03-23T13:51:13;100841.50;;;12.34;50.61
24422;BME280;12600;53.326;-6.298;2024-03-23T13:54:01;100832.69;;;12.46;49.58
24422;BME280;12600;53.326;-6.298;2024-03-23T13:56:50;100833.25;;;12.82;49.47
24422;BME280;12600;53.326;-6.298;2024-03-23T13:59:39;100817.97;;;12.99;47.92
24422;BME280;12600;53.326;-6.298;2024-03-23T14:02:27;100821.81;;;12.89;47.68
24422;BME280;12600;53.326;-6.298;2024-03-23T14:05:14;100809.34;;;12.66;48.00
24422;BME280;12600;53.326;-6.298;2024-03-23T14:08:04;100804.16;;;12.47;48.58
24422;BME280;12600;53.326;-6.298;2024-03-23T14:10:51;100814.72;;;12.22;50.83
24422;BME280;12600;53.326;-6.298;2024-03-23T14:13:40;100804.56;;;11.69;51.62
24422;BME280;12600;53.326;-6.298;2024-03-23T14:16:29;100824.25;;;12.33;51.11
24422;BME280;12600;53.326;-6.298;2024-03-23T14:19:17;100820.53;;;12.86;49.92
24422;BME280;12600;53.326;-6.298;2024-03-23T14:22:06;100829.16;;;13.20;48.62
24422;BME280;12600;53.326;-6.298;2024-03-23T14:24:54;100825.75;;;13.66;47.17
24422;BME280;12600;53.326;-6.298;2024-03-23T14:27:43;100854.22;;;14.08;46.15
24422;BME280;12600;53.326;-6.298;2024-03-23T14:30:32;100817.75;;;13.99;46.14
24422;BME280;12600;53.326;-6.298;2024-03-23T14:33:21;100830.19;;;14.05;46.26
24422;BME280;12600;53.326;-6.298;2024-03-23T14:36:10;100844.06;;;14.09;45.94
24422;BME280;12600;53.326;-6.298;2024-03-23T14:38:58;100822.03;;;14.17;45.77
24422;BME280;12600;53.326;-6.298;2024-03-23T14:41:46;100813.53;;;14.02;45.57
24422;BME280;12600;53.326;-6.298;2024-03-23T14:44:34;100824.59;;;13.67;45.65
24422;BME280;12600;53.326;-6.298;2024-03-23T14:47:22;100829.31;;;13.58;46.61
24422;BME280;12600;53.326;-6.298;2024-03-23T14:50:11;100853.84;;;13.37;47.87
24422;BME280;12600;53.326;-6.298;2024-03-23T14:53:03;100837.50;;;13.75;47.43
24422;BME280;12600;53.326;-6.298;2024-03-23T14:55:50;100833.78;;;13.88;46.84
24422;BME280;12600;53.326;-6.298;2024-03-23T14:58:39;100851.28;;;13.40;44.74
24422;BME280;12600;53.326;-6.298;2024-03-23T15:01:26;100835.75;;;13.10;44.95
24422;BME280;12600;53.326;-6.298;2024-03-23T15:04:15;100836.22;;;13.03;47.32
24422;BME280;12600;53.326;-6.298;2024-03-23T15:07:04;100828.00;;;13.38;48.00
24422;BME280;12600;53.326;-6.298;2024-03-23T15:09:52;100852.56;;;13.34;47.87
24422;BME280;12600;53.326;-6.298;2024-03-23T15:12:40;100850.03;;;12.81;47.51
24422;BME280;12600;53.326;-6.298;2024-03-23T15:15:30;100843.84;;;12.58;47.57
24422;BME280;12600;53.326;-6.298;2024-03-23T15:18:18;100840.69;;;12.82;47.14
24422;BME280;12600;53.326;-6.298;2024-03-23T15:21:12;100847.97;;;13.04;46.34
24422;BME280;12600;53.326;-6.298;2024-03-23T15:24:04;100868.38;;;13.37;45.61
24422;BME280;12600;53.326;-6.298;2024-03-23T15:26:52;100854.66;;;13.46;44.30
24422;BME280;12600;53.326;-6.298;2024-03-23T15:29:40;100853.38;;;13.35;42.85
24422;BME280;12600;53.326;-6.298;2024-03-23T15:32:32;100838.19;;;13.46;43.04